Accueil
METAR-TAF:

METAR-TAF

Aéroports :

Nancy, France

Base aérienne 133 Nancy-Ochey

latitude: 48-35N, longitude: 005-58E, altitude: 336 m

Observation

Le bulletin a été fait il y a 33 minutes, à 02:00 UTC
Vent 10 kt de sud-ouest
Température 6°C
Humidité 100%
Pression 1008 hPa
Visibilité 10 km ou plus
pluie faible

METAR: LFSO 010200Z AUTO 23010KT 9999 -RA FEW027/// SCT047/// OVC086/// ///TCU 06/06 Q1008

Heure: 04:33 (02:33 UTC)


TAF: absent

Observations et prévisions météorologiques de plus de 4000 aéroports (messages METAR et TAF).

Les stations disponibles sont représentées par des disques jaunes et rouges sur la carte.

Passer la souris dessus pour voir le nom de la station.

Cliquer dessus pour voir les observations et prévisions météorologiques.

Pour changer de carte: cliquez sur les boutons verts avec une croix noire pour zoomer, sur le bouton vert avec un tiret pour effectuer un zoom arrière, ou sur les flèches vertes pour les cartes adjacentes.


METAR-TAF: